sensor_id;sensor_type;location;lat;lon;timestamp;pressure;altitude;pressure_sealevel;temperature;humidity
31717;BME280;18301;51.076;17.046;2023-05-22T00:04:20;100354.44;;;17.24;66.70
31717;BME280;18301;51.076;17.046;2023-05-22T00:09:23;100357.47;;;17.21;66.40
31717;BME280;18301;51.076;17.046;2023-05-22T00:14:25;100360.81;;;17.15;67.11
31717;BME280;18301;51.076;17.046;2023-05-22T00:19:27;100355.69;;;17.12;67.64
31717;BME280;18301;51.076;17.046;2023-05-22T00:24:30;100359.03;;;17.06;67.53
31717;BME280;18301;51.076;17.046;2023-05-22T00:29:32;100356.63;;;17.03;67.26
31717;BME280;18301;51.076;17.046;2023-05-22T00:34:33;100362.06;;;17.03;67.09
31717;BME280;18301;51.076;17.046;2023-05-22T00:39:35;100357.78;;;16.83;67.73
31717;BME280;18301;51.076;17.046;2023-05-22T00:44:37;100356.69;;;16.75;68.21
31717;BME280;18301;51.076;17.046;2023-05-22T00:49:39;100358.66;;;16.73;67.88
31717;BME280;18301;51.076;17.046;2023-05-22T00:54:41;100359.44;;;16.66;68.64
31717;BME280;18301;51.076;17.046;2023-05-22T00:59:43;100346.28;;;16.61;68.53
31717;BME280;18301;51.076;17.046;2023-05-22T01:04:46;100352.19;;;16.56;69.12
31717;BME280;18301;51.076;17.046;2023-05-22T01:09:48;100352.19;;;16.56;68.58
31717;BME280;18301;51.076;17.046;2023-05-22T01:20:12;100363.13;;;16.47;68.91
31717;BME280;18301;51.076;17.046;2023-05-22T01:30:59;100362.75;;;16.42;69.46
31717;BME280;18301;51.076;17.046;2023-05-22T01:36:02;100363.97;;;16.29;69.93
31717;BME280;18301;51.076;17.046;2023-05-22T01:41:08;100359.72;;;16.17;70.00
31717;BME280;18301;51.076;17.046;2023-05-22T01:46:09;100356.88;;;16.09;69.91
31717;BME280;18301;51.076;17.046;2023-05-22T01:51:17;100362.31;;;16.09;70.24
31717;BME280;18301;51.076;17.046;2023-05-22T01:56:29;100358.19;;;16.05;70.84
31717;BME280;18301;51.076;17.046;2023-05-22T02:01:36;100352.31;;;16.00;70.34
31717;BME280;18301;51.076;17.046;2023-05-22T02:06:39;100350.63;;;15.99;70.39
31717;BME280;18301;51.076;17.046;2023-05-22T02:11:41;100346.63;;;15.93;70.46
31717;BME280;18301;51.076;17.046;2023-05-22T02:16:43;100343.06;;;15.93;70.00
31717;BME280;18301;51.076;17.046;2023-05-22T02:21:47;100341.78;;;15.87;69.94
31717;BME280;18301;51.076;17.046;2023-05-22T02:26:49;100342.63;;;15.87;69.86
31717;BME280;18301;51.076;17.046;2023-05-22T02:31:52;100348.38;;;15.84;69.87
31717;BME280;18301;51.076;17.046;2023-05-22T02:36:54;100340.38;;;15.73;70.05
31717;BME280;18301;51.076;17.046;2023-05-22T02:41:56;100342.72;;;15.68;69.91
31717;BME280;18301;51.076;17.046;2023-05-22T02:46:57;100336.81;;;15.63;69.88
31717;BME280;18301;51.076;17.046;2023-05-22T02:51:59;100337.66;;;15.63;69.92
31717;BME280;18301;51.076;17.046;2023-05-22T02:57:01;100348.41;;;15.65;69.92
31717;BME280;18301;51.076;17.046;2023-05-22T03:02:04;100344.41;;;15.59;69.69
31717;BME280;18301;51.076;17.046;2023-05-22T03:07:06;100343.44;;;15.51;70.15
31717;BME280;18301;51.076;17.046;2023-05-22T03:12:08;100347.88;;;15.42;69.84
31717;BME280;18301;51.076;17.046;2023-05-22T03:17:09;100345.59;;;15.37;70.02
31717;BME280;18301;51.076;17.046;2023-05-22T03:22:11;100343.19;;;15.34;69.79
31717;BME280;18301;51.076;17.046;2023-05-22T03:27:14;100336.44;;;15.38;69.69
31717;BME280;18301;51.076;17.046;2023-05-22T03:32:17;100335.84;;;15.45;69.60
31717;BME280;18301;51.076;17.046;2023-05-22T03:37:18;100335.84;;;15.45;69.56
31717;BME280;18301;51.076;17.046;2023-05-22T03:42:20;100340.44;;;15.44;69.49
31717;BME280;18301;51.076;17.046;2023-05-22T03:47:22;100334.44;;;15.40;69.05
31717;BME280;18301;51.076;17.046;2023-05-22T03:52:24;100336.44;;;15.38;69.28
31717;BME280;18301;51.076;17.046;2023-05-22T03:57:25;100342.72;;;15.39;69.00
31717;BME280;18301;51.076;17.046;2023-05-22T04:02:27;100337.31;;;15.49;69.10
31717;BME280;18301;51.076;17.046;2023-05-22T04:07:30;100333.78;;;15.66;68.99
31717;BME280;18301;51.076;17.046;2023-05-22T04:12:32;100337.19;;;15.87;68.66
31717;BME280;18301;51.076;17.046;2023-05-22T04:17:38;100331.41;;;16.00;68.37
31717;BME280;18301;51.076;17.046;2023-05-22T04:22:40;100338.25;;;16.14;68.06
31717;BME280;18301;51.076;17.046;2023-05-22T04:27:42;100333.91;;;16.21;67.57
31717;BME280;18301;51.076;17.046;2023-05-22T04:32:43;100338.13;;;16.33;67.47
31717;BME280;18301;51.076;17.046;2023-05-22T04:37:45;100333.53;;;16.34;67.04
31717;BME280;18301;51.076;17.046;2023-05-22T04:42:47;100335.50;;;16.42;66.52
31717;BME280;18301;51.076;17.046;2023-05-22T04:47:48;100325.56;;;16.68;65.88
31717;BME280;18301;51.076;17.046;2023-05-22T04:52:50;100327.63;;;17.02;63.65
31717;BME280;18301;51.076;17.046;2023-05-22T04:57:51;100332.63;;;17.07;63.54
31717;BME280;18301;51.076;17.046;2023-05-22T05:02:53;100335.38;;;17.33;62.71
31717;BME280;18301;51.076;17.046;2023-05-22T05:07:55;100333.25;;;17.18;61.73
31717;BME280;18301;51.076;17.046;2023-05-22T05:12:56;100340.03;;;17.58;61.96
31717;BME280;18301;51.076;17.046;2023-05-22T05:17:58;100341.72;;;17.59;61.03
31717;BME280;18301;51.076;17.046;2023-05-22T05:23:00;100332.97;;;17.74;61.36
31717;BME280;18301;51.076;17.046;2023-05-22T05:28:01;100336.59;;;18.08;59.46
31717;BME280;18301;51.076;17.046;2023-05-22T05:33:03;100330.28;;;18.08;60.87
31717;BME280;18301;51.076;17.046;2023-05-22T05:38:04;100329.34;;;18.33;61.08
31717;BME280;18301;51.076;17.046;2023-05-22T05:43:06;100335.25;;;18.63;59.89
31717;BME280;18301;51.076;17.046;2023-05-22T05:48:09;100337.19;;;18.79;58.07
31717;BME280;18301;51.076;17.046;2023-05-22T05:53:12;100328.66;;;18.90;58.55
31717;BME280;18301;51.076;17.046;2023-05-22T05:58:13;100337.56;;;19.17;57.43
31717;BME280;18301;51.076;17.046;2023-05-22T06:03:15;100332.09;;;19.17;57.28
31717;BME280;18301;51.076;17.046;2023-05-22T06:08:18;100316.69;;;19.24;56.72
31717;BME280;18301;51.076;17.046;2023-05-22T06:13:22;100326.28;;;19.44;55.55
31717;BME280;18301;51.076;17.046;2023-05-22T06:18:23;100326.53;;;19.98;54.38
31717;BME280;18301;51.076;17.046;2023-05-22T06:23:25;100324.31;;;19.94;53.48
31717;BME280;18301;51.076;17.046;2023-05-22T06:28:27;100330.63;;;19.94;54.49
31717;BME280;18301;51.076;17.046;2023-05-22T06:33:28;100331.59;;;20.18;53.80
31717;BME280;18301;51.076;17.046;2023-05-22T06:38:30;100324.78;;;20.06;53.89
31717;BME280;18301;51.076;17.046;2023-05-22T06:43:32;100334.81;;;20.30;53.13
31717;BME280;18301;51.076;17.046;2023-05-22T06:48:34;100330.25;;;20.14;53.33
31717;BME280;18301;51.076;17.046;2023-05-22T06:53:36;100334.09;;;20.36;53.12
31717;BME280;18301;51.076;17.046;2023-05-22T06:58:38;100346.88;;;20.60;51.44
31717;BME280;18301;51.076;17.046;2023-05-22T07:03:39;100340.53;;;20.82;51.01
31717;BME280;18301;51.076;17.046;2023-05-22T07:08:41;100333.41;;;21.19;50.59
31717;BME280;18301;51.076;17.046;2023-05-22T07:13:42;100328.84;;;21.34;49.64
31717;BME280;18301;51.076;17.046;2023-05-22T07:18:44;100321.03;;;21.23;50.12
31717;BME280;18301;51.076;17.046;2023-05-22T07:23:46;100321.16;;;21.53;47.89
31717;BME280;18301;51.076;17.046;2023-05-22T07:28:49;100324.91;;;21.52;47.42
31717;BME280;18301;51.076;17.046;2023-05-22T07:33:51;100321.63;;;21.56;48.15
31717;BME280;18301;51.076;17.046;2023-05-22T07:38:52;100330.25;;;21.68;47.23
31717;BME280;18301;51.076;17.046;2023-05-22T07:43:54;100327.22;;;21.63;48.61
31717;BME280;18301;51.076;17.046;2023-05-22T07:48:56;100317.97;;;21.94;47.31
31717;BME280;18301;51.076;17.046;2023-05-22T07:53:57;100315.03;;;22.25;47.76
31717;BME280;18301;51.076;17.046;2023-05-22T07:59:04;100320.31;;;22.41;46.16
31717;BME280;18301;51.076;17.046;2023-05-22T08:04:05;100318.66;;;22.62;46.43
31717;BME280;18301;51.076;17.046;2023-05-22T08:09:08;100321.91;;;22.50;45.02
31717;BME280;18301;51.076;17.046;2023-05-22T08:14:09;100307.59;;;22.55;45.23
31717;BME280;18301;51.076;17.046;2023-05-22T08:19:11;100312.09;;;22.99;44.99
31717;BME280;18301;51.076;17.046;2023-05-22T08:24:13;100315.53;;;23.01;43.09
31717;BME280;18301;51.076;17.046;2023-05-22T08:29:14;100310.00;;;23.23;44.25
31717;BME280;18301;51.076;17.046;2023-05-22T08:34:16;100303.97;;;23.34;42.34
31717;BME280;18301;51.076;17.046;2023-05-22T08:39:17;100299.47;;;23.54;44.28
31717;BME280;18301;51.076;17.046;2023-05-22T08:44:19;100296.66;;;23.76;42.13
31717;BME280;18301;51.076;17.046;2023-05-22T08:49:21;100292.00;;;23.76;41.91
31717;BME280;18301;51.076;17.046;2023-05-22T08:54:25;100291.75;;;23.99;39.94
31717;BME280;18301;51.076;17.046;2023-05-22T08:59:29;100283.28;;;24.07;39.91
31717;BME280;18301;51.076;17.046;2023-05-22T09:04:30;100282.06;;;24.17;37.63
31717;BME280;18301;51.076;17.046;2023-05-22T09:09:36;100287.72;;;24.43;38.62
31717;BME280;18301;51.076;17.046;2023-05-22T09:14:41;100272.38;;;24.34;36.72
31717;BME280;18301;51.076;17.046;2023-05-22T09:19:43;100271.03;;;24.17;35.17
31717;BME280;18301;51.076;17.046;2023-05-22T09:24:46;100266.56;;;24.64;34.28
31717;BME280;18301;51.076;17.046;2023-05-22T09:29:52;100261.41;;;24.47;34.65
31717;BME280;18301;51.076;17.046;2023-05-22T09:34:53;100261.81;;;24.44;33.72
31717;BME280;18301;51.076;17.046;2023-05-22T09:40:07;100263.13;;;24.48;34.23
31717;BME280;18301;51.076;17.046;2023-05-22T09:45:09;100258.47;;;24.55;34.42
31717;BME280;18301;51.076;17.046;2023-05-22T09:50:10;100250.31;;;24.34;36.07
31717;BME280;18301;51.076;17.046;2023-05-22T09:55:12;100255.94;;;24.61;35.08
31717;BME280;18301;51.076;17.046;2023-05-22T10:00:14;100251.34;;;24.94;34.78
31717;BME280;18301;51.076;17.046;2023-05-22T10:05:20;100242.84;;;24.96;35.29
31717;BME280;18301;51.076;17.046;2023-05-22T10:10:26;100229.28;;;25.14;34.38
31717;BME280;18301;51.076;17.046;2023-05-22T10:15:27;100229.69;;;25.04;33.55
31717;BME280;18301;51.076;17.046;2023-05-22T10:20:30;100230.09;;;24.88;34.43
31717;BME280;18301;51.076;17.046;2023-05-22T10:25:32;100224.19;;;25.31;32.33
31717;BME280;18301;51.076;17.046;2023-05-22T10:30:57;100226.25;;;25.09;32.74
31717;BME280;18301;51.076;17.046;2023-05-22T10:36:03;100220.31;;;24.92;32.69
31717;BME280;18301;51.076;17.046;2023-05-22T10:41:06;100217.38;;;25.00;32.92
31717;BME280;18301;51.076;17.046;2023-05-22T10:46:10;100213.31;;;24.90;34.36
31717;BME280;18301;51.076;17.046;2023-05-22T10:51:20;100219.47;;;25.05;33.45
31717;BME280;18301;51.076;17.046;2023-05-22T10:56:22;100230.47;;;24.65;33.72
31717;BME280;18301;51.076;17.046;2023-05-22T11:01:26;100215.81;;;24.51;34.25
31717;BME280;18301;51.076;17.046;2023-05-22T11:06:43;100205.94;;;24.29;34.37
31717;BME280;18301;51.076;17.046;2023-05-22T11:12:23;100207.00;;;24.21;35.39
31717;BME280;18301;51.076;17.046;2023-05-22T11:17:29;100197.22;;;24.12;35.87
31717;BME280;18301;51.076;17.046;2023-05-22T11:22:32;100204.56;;;24.46;34.76
31717;BME280;18301;51.076;17.046;2023-05-22T11:27:34;100198.63;;;24.49;35.78
31717;BME280;18301;51.076;17.046;2023-05-22T11:32:38;100194.00;;;24.70;34.88
31717;BME280;18301;51.076;17.046;2023-05-22T11:37:40;100195.25;;;24.80;35.54
31717;BME280;18301;51.076;17.046;2023-05-22T11:42:42;100195.72;;;24.97;34.93
31717;BME280;18301;51.076;17.046;2023-05-22T11:47:44;100177.44;;;24.83;34.12
31717;BME280;18301;51.076;17.046;2023-05-22T11:52:46;100184.22;;;24.87;35.05
31717;BME280;18301;51.076;17.046;2023-05-22T11:57:48;100169.78;;;24.92;34.56
31717;BME280;18301;51.076;17.046;2023-05-22T12:02:49;100168.53;;;24.94;35.26
31717;BME280;18301;51.076;17.046;2023-05-22T12:07:51;100175.09;;;24.93;35.09
31717;BME280;18301;51.076;17.046;2023-05-22T12:12:53;100163.84;;;24.88;35.42
31717;BME280;18301;51.076;17.046;2023-05-22T12:17:55;100159.59;;;24.92;34.81
31717;BME280;18301;51.076;17.046;2023-05-22T12:22:56;100161.09;;;24.88;34.49
31717;BME280;18301;51.076;17.046;2023-05-22T12:27:59;100154.50;;;25.02;35.02
31717;BME280;18301;51.076;17.046;2023-05-22T12:33:00;100151.50;;;25.37;33.93
31717;BME280;18301;51.076;17.046;2023-05-22T12:38:02;100151.09;;;24.94;34.15
31717;BME280;18301;51.076;17.046;2023-05-22T12:43:03;100153.22;;;24.98;33.68
31717;BME280;18301;51.076;17.046;2023-05-22T12:48:05;100143.00;;;25.06;34.14
31717;BME280;18301;51.076;17.046;2023-05-22T12:53:13;100145.16;;;24.77;33.64
31717;BME280;18301;51.076;17.046;2023-05-22T12:58:15;100143.47;;;24.76;34.76
31717;BME280;18301;51.076;17.046;2023-05-22T13:03:17;100137.06;;;25.09;33.04
31717;BME280;18301;51.076;17.046;2023-05-22T13:08:18;100139.63;;;24.90;33.15
31717;BME280;18301;51.076;17.046;2023-05-22T13:13:20;100133.25;;;24.96;33.52
31717;BME280;18301;51.076;17.046;2023-05-22T13:18:22;100126.50;;;24.72;33.78
31717;BME280;18301;51.076;17.046;2023-05-22T13:23:23;100129.88;;;24.94;33.76
31717;BME280;18301;51.076;17.046;2023-05-22T13:28:25;100119.25;;;25.18;33.11
31717;BME280;18301;51.076;17.046;2023-05-22T13:33:26;100113.28;;;25.08;34.01
31717;BME280;18301;51.076;17.046;2023-05-22T13:38:28;100104.34;;;25.32;31.55
31717;BME280;18301;51.076;17.046;2023-05-22T13:43:29;100095.06;;;25.13;33.10
31717;BME280;18301;51.076;17.046;2023-05-22T13:48:31;100102.88;;;24.96;32.96
31717;BME280;18301;51.076;17.046;2023-05-22T13:53:32;100094.19;;;24.99;33.31
31717;BME280;18301;51.076;17.046;2023-05-22T13:58:34;100094.22;;;25.13;32.95
31717;BME280;18301;51.076;17.046;2023-05-22T14:03:35;100090.78;;;25.11;33.13
31717;BME280;18301;51.076;17.046;2023-05-22T14:08:37;100085.44;;;25.29;33.31
31717;BME280;18301;51.076;17.046;2023-05-22T14:13:39;100070.59;;;25.17;33.50
31717;BME280;18301;51.076;17.046;2023-05-22T14:18:40;100069.88;;;25.41;33.29
31717;BME280;18301;51.076;17.046;2023-05-22T14:23:42;100074.63;;;25.21;34.89
31717;BME280;18301;51.076;17.046;2023-05-22T14:28:43;100069.94;;;25.28;33.53
31717;BME280;18301;51.076;17.046;2023-05-22T14:33:45;100060.19;;;25.06;35.29
31717;BME280;18301;51.076;17.046;2023-05-22T14:38:46;100057.22;;;25.14;33.00
31717;BME280;18301;51.076;17.046;2023-05-22T14:43:48;100047.41;;;25.24;33.55
31717;BME280;18301;51.076;17.046;2023-05-22T14:48:49;100055.94;;;25.23;33.75
31717;BME280;18301;51.076;17.046;2023-05-22T14:53:51;100056.56;;;25.25;33.93
31717;BME280;18301;51.076;17.046;2023-05-22T14:58:52;100052.13;;;25.17;34.64
31717;BME280;18301;51.076;17.046;2023-05-22T15:03:54;100054.25;;;25.22;33.74
31717;BME280;18301;51.076;17.046;2023-05-22T15:08:55;100033.88;;;25.10;34.48
31717;BME280;18301;51.076;17.046;2023-05-22T15:13:57;100035.16;;;25.14;34.28
31717;BME280;18301;51.076;17.046;2023-05-22T15:18:58;100038.75;;;25.14;33.41
31717;BME280;18301;51.076;17.046;2023-05-22T15:24:00;100027.06;;;25.06;33.51
31717;BME280;18301;51.076;17.046;2023-05-22T15:29:01;100020.06;;;25.10;34.11
31717;BME280;18301;51.076;17.046;2023-05-22T15:34:03;100007.72;;;25.12;33.27
31717;BME280;18301;51.076;17.046;2023-05-22T15:39:05;100006.72;;;24.93;33.27
31717;BME280;18301;51.076;17.046;2023-05-22T15:44:08;100002.50;;;24.84;33.62
31717;BME280;18301;51.076;17.046;2023-05-22T15:49:10;99995.31;;;24.70;34.14
31717;BME280;18301;51.076;17.046;2023-05-22T15:54:11;99994.03;;;24.79;34.32
31717;BME280;18301;51.076;17.046;2023-05-22T15:59:13;99984.31;;;24.63;32.87
31717;BME280;18301;51.076;17.046;2023-05-22T16:04:14;99978.34;;;24.60;33.70
31717;BME280;18301;51.076;17.046;2023-05-22T16:09:16;99985.78;;;24.52;33.22
31717;BME280;18301;51.076;17.046;2023-05-22T16:14:19;99975.41;;;24.54;33.87
31717;BME280;18301;51.076;17.046;2023-05-22T16:19:21;99970.06;;;24.60;33.83
31717;BME280;18301;51.076;17.046;2023-05-22T16:24:23;99967.53;;;24.65;33.28
31717;BME280;18301;51.076;17.046;2023-05-22T16:29:25;99973.28;;;24.37;34.15
31717;BME280;18301;51.076;17.046;2023-05-22T16:34:26;99977.72;;;24.24;33.85
31717;BME280;18301;51.076;17.046;2023-05-22T16:39:29;99967.13;;;24.15;33.37
31717;BME280;18301;51.076;17.046;2023-05-22T16:44:31;99979.03;;;24.02;34.68
31717;BME280;18301;51.076;17.046;2023-05-22T16:49:33;99977.09;;;23.96;35.10
31717;BME280;18301;51.076;17.046;2023-05-22T16:54:35;99977.94;;;24.03;34.78
31717;BME280;18301;51.076;17.046;2023-05-22T16:59:37;99985.56;;;23.81;35.92
31717;BME280;18301;51.076;17.046;2023-05-22T17:04:39;99997.56;;;23.60;36.46
31717;BME280;18301;51.076;17.046;2023-05-22T17:09:41;99995.00;;;23.58;36.62
31717;BME280;18301;51.076;17.046;2023-05-22T17:14:42;99990.94;;;23.34;37.44
31717;BME280;18301;51.076;17.046;2023-05-22T17:19:44;100001.47;;;23.24;38.06
31717;BME280;18301;51.076;17.046;2023-05-22T17:24:46;99999.78;;;23.30;38.47
31717;BME280;18301;51.076;17.046;2023-05-22T17:29:48;99999.34;;;23.19;38.70
31717;BME280;18301;51.076;17.046;2023-05-22T17:34:50;99995.44;;;23.01;39.09
31717;BME280;18301;51.076;17.046;2023-05-22T17:39:52;99995.00;;;22.97;39.81
31717;BME280;18301;51.076;17.046;2023-05-22T17:44:53;99989.38;;;22.84;39.55
31717;BME280;18301;51.076;17.046;2023-05-22T17:49:55;99983.41;;;22.73;39.99
31717;BME280;18301;51.076;17.046;2023-05-22T17:54:56;99985.84;;;22.55;40.17
31717;BME280;18301;51.076;17.046;2023-05-22T17:59:58;99986.94;;;22.33;40.23
31717;BME280;18301;51.076;17.046;2023-05-22T18:04:59;99987.69;;;22.20;41.05
31717;BME280;18301;51.076;17.046;2023-05-22T18:10:01;99973.84;;;22.13;40.79
31717;BME280;18301;51.076;17.046;2023-05-22T18:15:02;99981.00;;;22.08;41.01
31717;BME280;18301;51.076;17.046;2023-05-22T18:20:05;99970.09;;;21.93;41.54
31717;BME280;18301;51.076;17.046;2023-05-22T18:25:08;99975.06;;;21.82;42.09
31717;BME280;18301;51.076;17.046;2023-05-22T18:30:10;99978.34;;;21.71;42.18
31717;BME280;18301;51.076;17.046;2023-05-22T18:35:12;99977.16;;;21.59;42.63
31717;BME280;18301;51.076;17.046;2023-05-22T18:40:14;99976.09;;;21.38;42.96
31717;BME280;18301;51.076;17.046;2023-05-22T18:45:15;99976.16;;;21.30;43.39
31717;BME280;18301;51.076;17.046;2023-05-22T18:50:17;99987.75;;;21.11;43.81
31717;BME280;18301;51.076;17.046;2023-05-22T18:55:19;99985.25;;;20.95;44.54
31717;BME280;18301;51.076;17.046;2023-05-22T19:00:20;99990.34;;;20.83;45.10
31717;BME280;18301;51.076;17.046;2023-05-22T19:05:22;99992.78;;;20.78;45.45
31717;BME280;18301;51.076;17.046;2023-05-22T19:10:23;99990.47;;;20.60;46.76
31717;BME280;18301;51.076;17.046;2023-05-22T19:15:25;99988.13;;;20.49;46.27
31717;BME280;18301;51.076;17.046;2023-05-22T19:20:26;99995.78;;;20.38;47.25
31717;BME280;18301;51.076;17.046;2023-05-22T19:25:28;99994.25;;;20.21;48.84
31717;BME280;18301;51.076;17.046;2023-05-22T19:30:30;99988.34;;;20.09;48.27
31717;BME280;18301;51.076;17.046;2023-05-22T19:35:31;99989.41;;;20.08;48.52
31717;BME280;18301;51.076;17.046;2023-05-22T19:40:33;99990.31;;;20.00;47.94
31717;BME280;18301;51.076;17.046;2023-05-22T19:45:34;99992.09;;;19.93;48.19
31717;BME280;18301;51.076;17.046;2023-05-22T19:50:36;99993.50;;;19.89;48.74
31717;BME280;18301;51.076;17.046;2023-05-22T19:55:38;99997.63;;;19.85;48.90
31717;BME280;18301;51.076;17.046;2023-05-22T20:00:39;99998.72;;;19.76;49.17
31717;BME280;18301;51.076;17.046;2023-05-22T20:05:42;100003.22;;;19.69;49.29
31717;BME280;18301;51.076;17.046;2023-05-22T20:10:43;99992.50;;;19.59;49.62
31717;BME280;18301;51.076;17.046;2023-05-22T20:15:46;99989.78;;;19.51;50.10
31717;BME280;18301;51.076;17.046;2023-05-22T20:20:48;99993.94;;;19.47;50.62
31717;BME280;18301;51.076;17.046;2023-05-22T20:25:49;99997.56;;;19.39;50.80
31717;BME280;18301;51.076;17.046;2023-05-22T20:30:51;99990.97;;;19.34;51.33
31717;BME280;18301;51.076;17.046;2023-05-22T20:35:53;99986.84;;;19.29;51.42
31717;BME280;18301;51.076;17.046;2023-05-22T20:40:54;99993.25;;;19.22;51.36
31717;BME280;18301;51.076;17.046;2023-05-22T20:45:58;99992.91;;;19.17;52.01
31717;BME280;18301;51.076;17.046;2023-05-22T20:51:00;99990.63;;;18.97;52.56
31717;BME280;18301;51.076;17.046;2023-05-22T20:56:02;99994.78;;;18.85;52.46
31717;BME280;18301;51.076;17.046;2023-05-22T21:01:03;99993.44;;;18.64;52.88
31717;BME280;18301;51.076;17.046;2023-05-22T21:06:05;99989.03;;;18.47;53.05
31717;BME280;18301;51.076;17.046;2023-05-22T21:11:06;99986.50;;;18.37;53.34
31717;BME280;18301;51.076;17.046;2023-05-22T21:16:08;99998.66;;;18.18;53.83
31717;BME280;18301;51.076;17.046;2023-05-22T21:21:09;99987.91;;;18.09;53.95
31717;BME280;18301;51.076;17.046;2023-05-22T21:26:11;99988.44;;;18.04;54.09
31717;BME280;18301;51.076;17.046;2023-05-22T21:31:13;99980.25;;;17.96;54.25
31717;BME280;18301;51.076;17.046;2023-05-22T21:36:14;99983.31;;;17.93;53.98
31717;BME280;18301;51.076;17.046;2023-05-22T21:41:16;99983.31;;;18.01;53.79
31717;BME280;18301;51.076;17.046;2023-05-22T21:46:19;99989.47;;;17.95;54.11
31717;BME280;18301;51.076;17.046;2023-05-22T21:51:22;99982.47;;;17.92;53.88
31717;BME280;18301;51.076;17.046;2023-05-22T21:56:24;99975.44;;;17.82;54.32
31717;BME280;18301;51.076;17.046;2023-05-22T22:01:26;99974.75;;;17.71;54.27
31717;BME280;18301;51.076;17.046;2023-05-22T22:06:28;99969.63;;;17.60;55.02
31717;BME280;18301;51.076;17.046;2023-05-22T22:11:29;99971.34;;;17.61;54.83
31717;BME280;18301;51.076;17.046;2023-05-22T22:16:31;99973.38;;;17.59;54.93
31717;BME280;18301;51.076;17.046;2023-05-22T22:21:36;99966.88;;;17.60;55.27
31717;BME280;18301;51.076;17.046;2023-05-22T22:26:37;99965.88;;;17.61;55.26
31717;BME280;18301;51.076;17.046;2023-05-22T22:31:39;99960.06;;;17.56;55.32
31717;BME280;18301;51.076;17.046;2023-05-22T22:36:40;99959.06;;;17.49;55.63
31717;BME280;18301;51.076;17.046;2023-05-22T22:41:42;99965.00;;;17.44;56.07
31717;BME280;18301;51.076;17.046;2023-05-22T22:46:43;99961.75;;;17.41;56.40
31717;BME280;18301;51.076;17.046;2023-05-22T22:51:46;99960.72;;;17.34;56.65
31717;BME280;18301;51.076;17.046;2023-05-22T22:56:48;99952.53;;;17.25;56.89
31717;BME280;18301;51.076;17.046;2023-05-22T23:01:50;99960.69;;;17.17;57.50
31717;BME280;18301;51.076;17.046;2023-05-22T23:06:51;99955.69;;;17.05;57.57
31717;BME280;18301;51.076;17.046;2023-05-22T23:11:53;99954.16;;;16.94;58.01
31717;BME280;18301;51.076;17.046;2023-05-22T23:16:55;99951.00;;;16.80;58.55
31717;BME280;18301;51.076;17.046;2023-05-22T23:21:56;99949.16;;;16.81;58.74
31717;BME280;18301;51.076;17.046;2023-05-22T23:26:58;99936.53;;;16.80;58.59
31717;BME280;18301;51.076;17.046;2023-05-22T23:31:59;99931.19;;;16.70;58.86
31717;BME280;18301;51.076;17.046;2023-05-22T23:37:01;99929.84;;;16.66;59.15
31717;BME280;18301;51.076;17.046;2023-05-22T23:42:02;99933.56;;;16.65;59.03
31717;BME280;18301;51.076;17.046;2023-05-22T23:47:04;99933.03;;;16.62;59.26
31717;BME280;18301;51.076;17.046;2023-05-22T23:52:07;99919.91;;;16.57;59.78
31717;BME280;18301;51.076;17.046;2023-05-22T23:57:08;99927.00;;;16.50;59.78
